Rush Township, PA

4:27 PM EST on February 08, 2016 (GMT -0500)
Sunnyside Hollow Rd. | | Change Station
CLOSE
Current Station
Personal Weather Station
Location: Port Matilda, PA
Elevation: 1352 ft
Nearby Weather Stations

Elev 1352 ft 40.84 °N, 78.05 °W | Updated 2 minutes ago

Overcast
Overcast
38.3 °F
Feels Like 38 °F
N
0.0
Wind Variable Wind from East

Today
High -- | Low -- °F
--% Chance of Precip.
Yesterday
High -- | Low -- °F
Precip. -- in
Pressure 29.61 in
Visibility 10.0 miles
Clouds Scattered Clouds 6000 ft
Mostly Cloudy 7000 ft
Mostly Cloudy 9000 ft
Windchill 38 °F
Dew Point 24 °F
Humidity 56%
Rainfall 0.00 in
Snow Depth Not available.
7:15 AM 5:37 PM
New Moon, 0% visible
METAR KUNV 082053Z 15006KT 10SM SCT060 BKN070 BKN090 04/M06 A2961
Pressure 29.61 in
Visibility 10.0 miles
Clouds Scattered Clouds 6000 ft
Mostly Cloudy 7000 ft
Mostly Cloudy 9000 ft
Windchill 38 °F
Dew Point 24 °F
Humidity 56%
Rainfall 0.00 in
Snow Depth Not available.
7:15 AM 5:37 PM
New Moon, 0% visible
METAR KUNV 082053Z 15006KT 10SM SCT060 BKN070 BKN090 04/M06 A2961

10-Day Weather Forecast

Almanac

Astronomy

Feb. 08, 2016 Rise Set
Actual Time
Civil Twilight
Nautical Twilight
Astronomical Twilight
Moon
Length of Visible Light
Length of Day
Tomorrow will be .
, % of the Moon is Illuminated

Today's Extremes

State Highs State Lows

Community

WunderPhotos

Upload Photos

1,891,516 photos uploaded!

WunderBlog® & News

Nearby

Air Quality

  Air Quality AQ Index Pollutant
Not available.

Snow Depth

Station Depth Elevation

Earthquake Activity

City Distance Mag. Time & Date
Minimum magnitude displayed is 2.5.

Coastal Water Temperatures

Place Temperature

Stations

Nearby Weather Stations

Station Location Temp. Windchill Dew Point Humidity Wind Precip. Elev Updated Type
                   

Watches & Warnings

There are currently no watches in effect.